Buford, Wyoming
Current Conditions -  °F | °C
As of 12:55 PM on Tuesday 21 Oct 2014 (Local Time) from KFEW Reporting Station
Broken Clouds Broken Clouds  
Wind Chill: 70°   Ceiling: 11000
Heat Index: 70°   Visibility: 10mi
Dew Point: 32°   Wind: 14mph
Humidity: 25%   Direction: 230°SW
Pressure: 29.97"   Gusts: 17mph
Location:  41.12°N, 105.31°W
Report Text: KFEW 211855Z AUTO 23012G15KT 10SM BKN110 21/00 A2997 RMK AO2 SLPNO T02090001
Loading
Personal Weather Stations






























Interactive Weather Map
Tropical Storm Tracking
New forecast layout! Learn more

10-Day Weather Forecast

Advertisements
Track Severe Weather on mobile